Time;durP1;ratioP1;P1;durP2;ratioP2;P2;SDS_P1;SDS_P2;PMS_P1;PMS_P2;Temp;Humidity;BMP_temperature;BMP_pressure;BME280_temperature;BME280_humidity;BME280_pressure;Samples;Min_cycle;Max_cycle;Signal;HPM_P1;HPM_P2
2022/04/16 00:01:38;;;;;;;22.02;14.50;;;6.80;99.90;;;;;;5059207;28;20024;-90
2022/04/16 00:04:04;;;;;;;24.23;14.70;;;6.80;99.90;;;;;;5058686;28;20454;-83
2022/04/16 00:06:30;;;;;;;16.42;11.90;;;6.80;99.90;;;;;;5077162;28;20023;-87
2022/04/16 00:08:55;;;;;;;13.98;10.27;;;6.80;99.90;;;;;;5058247;28;20103;-89
2022/04/16 00:11:21;;;;;;;14.30;10.05;;;6.60;99.90;;;;;;5076578;28;20028;-90
2022/04/16 00:13:50;;;;;;;12.10;8.48;;;6.50;99.90;;;;;;5058078;28;20021;-83
2022/04/16 00:16:17;;;;;;;11.95;8.88;;;6.50;99.90;;;;;;5058592;28;20027;-90
2022/04/16 00:18:44;;;;;;;10.18;8.05;;;6.50;99.90;;;;;;5058756;28;20420;-89
2022/04/16 00:21:10;;;;;;;11.68;7.82;;;6.40;99.90;;;;;;5058109;28;20469;-84
2022/04/16 00:23:37;;;;;;;11.75;8.82;;;6.40;99.90;;;;;;5058357;28;20029;-82
2022/04/16 00:26:03;;;;;;;10.65;8.02;;;6.30;99.90;;;;;;5076418;28;20016;-89
2022/04/16 00:28:28;;;;;;;12.30;8.32;;;6.30;99.90;;;;;;5076298;28;20112;-89
2022/04/16 00:30:56;;;;;;;12.18;8.43;;;6.20;99.90;;;;;;5075750;28;20427;-83
2022/04/16 00:33:25;;;;;;;10.68;8.10;;;6.10;99.90;;;;;;5076403;28;20025;-89
2022/04/16 00:35:51;;;;;;;11.02;8.55;;;6.10;99.90;;;;;;5058000;28;20021;-89
2022/04/16 00:38:17;;;;;;;11.90;8.73;;;6.00;99.90;;;;;;5076557;28;20067;-83
2022/04/16 00:40:43;;;;;;;11.88;8.20;;;6.00;99.90;;;;;;5075599;28;20029;-88
2022/04/16 00:43:20;;;;;;;11.32;8.35;;;6.00;99.90;;;;;;5076059;28;20455;-88
2022/04/16 00:45:45;;;;;;;13.68;8.80;;;6.00;99.90;;;;;;5057866;28;20040;-83
2022/04/16 00:48:11;;;;;;;12.93;9.00;;;6.00;99.90;;;;;;5076114;28;20493;-84
2022/04/16 00:50:37;;;;;;;14.50;9.23;;;6.00;99.90;;;;;;5075745;28;20032;-84
2022/04/16 00:53:03;;;;;;;11.93;6.90;;;6.00;99.90;;;;;;5075878;28;20028;-89
2022/04/16 00:55:29;;;;;;;11.02;7.97;;;5.90;99.90;;;;;;5057490;28;20028;-89
2022/04/16 00:57:55;;;;;;;11.52;8.25;;;5.80;99.90;;;;;;5076016;28;20043;-83
2022/04/16 01:00:21;;;;;;;11.25;8.30;;;5.80;99.90;;;;;;5075253;28;20049;-83
2022/04/16 01:02:47;;;;;;;10.52;8.30;;;5.80;99.90;;;;;;5076144;28;20028;-85
2022/04/16 01:05:12;;;;;;;12.05;7.90;;;5.70;99.90;;;;;;5075315;28;20102;-88
2022/04/16 01:07:58;;;;;;;10.90;7.72;;;5.70;99.90;;;;;;5075687;28;20384;-86
2022/04/16 01:10:26;;;;;;;11.75;8.35;;;5.70;99.90;;;;;;5057277;28;20016;-87
2022/04/16 01:12:52;;;;;;;13.40;8.68;;;5.60;99.90;;;;;;5075464;28;20020;-83
2022/04/16 01:15:21;;;;;;;11.57;8.40;;;5.60;99.90;;;;;;5075305;28;20499;-83
2022/04/16 01:17:47;;;;;;;12.27;8.73;;;5.60;99.90;;;;;;5075552;28;20060;-89
2022/04/16 01:20:17;;;;;;;11.63;8.40;;;5.60;99.90;;;;;;5075190;28;20431;-87
2022/04/16 01:22:44;;;;;;;13.48;8.25;;;5.60;99.90;;;;;;5075376;28;20020;-89
2022/04/16 01:25:11;;;;;;;10.85;8.10;;;5.60;99.90;;;;;;5075097;28;20016;-84
2022/04/16 01:27:43;;;;;;;13.35;7.97;;;5.60;99.90;;;;;;5075426;28;20420;-88
2022/04/16 01:30:10;;;;;;;10.02;7.07;;;5.60;99.90;;;;;;5057119;28;20051;-88
2022/04/16 01:32:36;;;;;;;8.60;6.65;;;5.60;99.90;;;;;;5075261;28;20022;-84
2022/04/16 01:35:03;;;;;;;8.90;5.85;;;5.50;99.90;;;;;;5074630;28;20078;-83
2022/04/16 01:37:33;;;;;;;5.85;4.18;;;5.40;99.90;;;;;;5057192;28;20436;-84
2022/04/16 01:40:01;;;;;;;6.50;4.28;;;5.40;99.90;;;;;;5075177;28;20451;-83
2022/04/16 01:42:29;;;;;;;6.18;4.90;;;5.40;99.90;;;;;;5075145;28;20017;-87
2022/04/16 01:45:19;;;;;;;5.10;4.32;;;5.40;99.90;;;;;;5074392;28;20021;-83
2022/04/16 01:47:44;;;;;;;5.60;4.18;;;5.30;99.90;;;;;;5056633;28;20025;-89
2022/04/16 01:50:11;;;;;;;5.35;4.35;;;5.30;99.90;;;;;;5074495;28;20032;-83
2022/04/16 01:52:38;;;;;;;6.72;4.30;;;5.30;99.90;;;;;;5074446;28;20070;-83
2022/04/16 01:55:04;;;;;;;5.20;4.47;;;5.20;99.90;;;;;;5074318;28;20107;-83
2022/04/16 01:57:30;;;;;;;6.68;4.40;;;5.20;99.90;;;;;;5074703;28;20032;-87
2022/04/16 01:59:56;;;;;;;5.00;3.88;;;5.10;99.90;;;;;;5074201;28;20109;-87
2022/04/16 02:02:22;;;;;;;6.05;4.00;;;5.10;99.90;;;;;;5074580;28;20437;-83
2022/04/16 02:04:48;;;;;;;6.45;4.15;;;5.00;99.90;;;;;;5074085;28;20040;-82
2022/04/16 02:07:14;;;;;;;4.90;4.00;;;5.10;99.90;;;;;;5056723;28;20017;-83
2022/04/16 02:09:40;;;;;;;5.90;4.68;;;5.10;99.90;;;;;;5073980;28;20032;-88
2022/04/16 02:12:07;;;;;;;7.57;4.40;;;5.10;99.90;;;;;;5074542;28;20623;-86
2022/04/16 02:14:33;;;;;;;6.07;5.05;;;5.10;99.90;;;;;;5073670;28;20032;-81
2022/04/16 02:16:59;;;;;;;6.18;4.40;;;5.10;99.90;;;;;;5074018;28;20028;-86
2022/04/16 02:19:26;;;;;;;5.68;4.78;;;5.20;99.90;;;;;;5039348;28;20396;-81
2022/04/16 02:21:51;;;;;;;6.00;5.05;;;5.10;99.90;;;;;;5073720;28;20051;-81
2022/04/16 02:24:17;;;;;;;6.38;4.57;;;5.20;99.90;;;;;;5073878;28;20436;-81
2022/04/16 02:26:46;;;;;;;7.38;5.10;;;5.10;99.90;;;;;;5074469;28;20057;-85
2022/04/16 02:29:13;;;;;;;4.68;3.72;;;5.10;99.90;;;;;;5055537;28;20044;-81
2022/04/16 02:31:38;;;;;;;4.90;4.20;;;5.00;99.90;;;;;;5073964;28;20013;-86
2022/04/16 02:34:05;;;;;;;4.85;4.40;;;5.00;99.90;;;;;;5056337;28;20025;-81
2022/04/16 02:36:31;;;;;;;5.80;4.35;;;4.90;99.90;;;;;;5074095;28;20024;-86
2022/04/16 02:38:57;;;;;;;4.72;3.88;;;4.90;99.90;;;;;;5055336;28;20062;-87
2022/04/16 02:41:24;;;;;;;5.60;4.25;;;4.80;99.90;;;;;;5073911;28;20016;-85
2022/04/16 02:43:50;;;;;;;5.63;4.45;;;4.70;99.90;;;;;;5073102;28;20466;-87
2022/04/16 02:49:00;;;;;;;5.82;4.57;;;4.70;99.90;;;;;;5073360;28;20031;-81
2022/04/16 02:51:26;;;;;;;6.90;5.35;;;4.70;99.90;;;;;;5073520;28;20028;-86
2022/04/16 02:53:52;;;;;;;5.28;4.63;;;4.70;99.90;;;;;;5073086;28;20028;-80
2022/04/16 02:56:18;;;;;;;7.45;5.15;;;4.70;99.90;;;;;;5073460;28;20085;-85
2022/04/16 02:58:44;;;;;;;7.60;5.43;;;4.60;99.90;;;;;;5055428;28;20036;-81
2022/04/16 03:01:09;;;;;;;8.60;5.38;;;4.60;99.90;;;;;;5073225;28;20124;-81
2022/04/16 03:03:35;;;;;;;9.23;6.10;;;4.70;99.90;;;;;;5073485;28;20522;-86
2022/04/16 03:06:00;;;;;;;6.07;4.50;;;4.60;99.90;;;;;;5072950;28;20074;-86
2022/04/16 03:08:26;;;;;;;6.82;5.65;;;4.60;99.90;;;;;;5073303;28;20393;-87
2022/04/16 03:10:52;;;;;;;6.50;4.95;;;4.60;99.90;;;;;;5072806;28;20024;-81
2022/04/16 03:13:19;;;;;;;5.43;4.68;;;4.50;99.90;;;;;;5073114;28;20028;-86
2022/04/16 03:18:29;;;;;;;4.78;3.80;;;4.50;99.90;;;;;;5073019;28;20459;-87
2022/04/16 03:20:54;;;;;;;4.55;3.97;;;4.40;99.90;;;;;;5072817;28;20025;-84
2022/04/16 03:23:20;;;;;;;3.78;3.20;;;4.40;99.90;;;;;;5073332;28;20016;-81
2022/04/16 03:25:48;;;;;;;4.13;3.08;;;4.40;99.90;;;;;;5072579;28;20154;-85
2022/04/16 03:28:14;;;;;;;4.13;3.22;;;4.30;99.90;;;;;;5073054;28;20017;-81
2022/04/16 03:30:40;;;;;;;3.65;3.03;;;4.30;99.90;;;;;;5072571;28;20553;-85
2022/04/16 03:33:06;;;;;;;3.58;3.28;;;4.30;99.90;;;;;;5072763;28;20466;-85
2022/04/16 03:35:34;;;;;;;3.50;3.20;;;4.20;99.90;;;;;;5071507;28;20100;-86
2022/04/16 03:38:00;;;;;;;3.35;3.03;;;4.20;99.90;;;;;;5073176;28;20032;-85
2022/04/16 03:40:26;;;;;;;3.80;3.38;;;4.20;99.90;;;;;;5072303;28;20496;-87
2022/04/16 03:42:57;;;;;;;3.45;2.78;;;4.10;99.90;;;;;;5054895;28;20017;-88
2022/04/16 03:45:29;;;;;;;5.05;3.47;;;4.20;99.90;;;;;;5072779;28;20037;-81
2022/04/16 03:47:57;;;;;;;4.63;4.10;;;4.20;99.90;;;;;;5072608;28;20432;-85
2022/04/16 03:50:24;;;;;;;3.50;2.85;;;4.20;99.90;;;;;;5054058;28;20066;-87
2022/04/16 03:52:51;;;;;;;3.35;3.05;;;4.20;99.90;;;;;;5072743;28;20016;-86
2022/04/16 04:00:52;;;;;;;3.75;3.33;;;4.10;99.90;;;;;;5072150;28;20109;-87
2022/04/16 04:03:19;;;;;;;3.60;3.30;;;4.00;99.90;;;;;;5054798;28;20020;-81
2022/04/16 04:05:45;;;;;;;6.53;4.00;;;4.00;99.90;;;;;;5072100;28;20434;-85
2022/04/16 04:08:11;;;;;;;6.85;4.63;;;4.10;99.90;;;;;;5054525;28;20104;-85
2022/04/16 04:10:37;;;;;;;6.15;4.93;;;4.10;99.90;;;;;;5072371;28;20025;-85
2022/04/16 04:13:03;;;;;;;5.22;4.50;;;4.10;99.90;;;;;;5072542;28;20028;-85
2022/04/16 04:15:29;;;;;;;5.50;4.25;;;4.20;99.90;;;;;;5072100;28;20021;-81
2022/04/16 04:17:56;;;;;;;6.15;5.55;;;4.10;99.90;;;;;;5072438;28;20604;-85
2022/04/16 04:20:23;;;;;;;6.38;5.32;;;4.20;99.90;;;;;;5072064;28;20048;-86
2022/04/16 04:22:49;;;;;;;8.13;6.35;;;4.20;99.90;;;;;;5054330;28;20559;-84
2022/04/16 04:25:14;;;;;;;6.38;5.70;;;4.20;99.90;;;;;;5072143;28;20067;-81
2022/04/16 04:27:40;;;;;;;6.07;5.45;;;4.30;99.90;;;;;;5072442;28;20334;-84
2022/04/16 04:30:06;;;;;;;7.25;5.43;;;4.20;99.90;;;;;;5053729;28;20050;-86
2022/04/16 04:32:32;;;;;;;6.65;6.05;;;4.20;99.90;;;;;;5054203;28;20074;-85
2022/04/16 04:34:57;;;;;;;6.70;5.90;;;4.20;99.90;;;;;;5071969;28;20032;-81
2022/04/16 04:37:23;;;;;;;6.68;5.43;;;4.20;99.90;;;;;;5072040;28;20033;-84
2022/04/16 04:39:49;;;;;;;7.30;5.80;;;4.20;99.90;;;;;;5071832;28;20028;-81
2022/04/16 04:42:29;;;;;;;6.03;5.40;;;4.10;99.90;;;;;;5072324;28;20021;-86
2022/04/16 04:44:55;;;;;;;5.07;4.45;;;4.20;99.90;;;;;;5071939;28;20024;-81
2022/04/16 04:47:21;;;;;;;7.55;5.15;;;4.10;99.90;;;;;;5076053;28;20457;-85
2022/04/16 04:49:47;;;;;;;5.05;4.55;;;4.20;99.90;;;;;;5057421;28;20024;-86
2022/04/16 04:52:29;;;;;;;5.05;4.38;;;4.20;99.90;;;;;;5057899;28;20445;-85
2022/04/16 04:54:56;;;;;;;6.85;5.65;;;4.10;99.90;;;;;;5057513;28;20136;-81
2022/04/16 04:57:22;;;;;;;6.35;5.72;;;4.10;99.90;;;;;;5075856;28;20072;-85
2022/04/16 04:59:47;;;;;;;6.47;5.85;;;4.10;99.90;;;;;;5075125;28;20076;-81
2022/04/16 05:02:13;;;;;;;8.55;6.60;;;4.10;99.90;;;;;;5075496;28;20078;-83
2022/04/16 05:04:39;;;;;;;11.07;8.32;;;4.10;99.90;;;;;;5075305;28;20025;-85
2022/04/16 05:07:05;;;;;;;10.90;7.97;;;4.10;99.90;;;;;;5057505;28;20466;-85
2022/04/16 05:09:31;;;;;;;12.13;8.95;;;4.00;99.90;;;;;;5075262;28;20020;-81
2022/04/16 05:11:57;;;;;;;9.48;7.18;;;4.00;99.90;;;;;;5075513;28;20027;-85
2022/04/16 05:14:23;;;;;;;11.07;8.73;;;4.00;99.90;;;;;;5075525;28;20037;-86
2022/04/16 05:16:49;;;;;;;13.20;8.88;;;3.90;99.90;;;;;;5075374;28;20096;-81
2022/04/16 05:19:15;;;;;;;14.15;10.38;;;4.00;99.90;;;;;;5075146;28;20044;-85
2022/04/16 05:21:41;;;;;;;12.20;8.90;;;3.90;99.90;;;;;;5075112;28;20024;-82
2022/04/16 05:24:07;;;;;;;21.83;16.48;;;3.90;99.90;;;;;;5074981;28;20107;-81
2022/04/16 05:26:33;;;;;;;13.00;8.55;;;3.80;99.90;;;;;;5057307;28;20493;-82
2022/04/16 05:28:59;;;;;;;16.13;11.88;;;3.80;99.90;;;;;;5075058;28;20032;-81
2022/04/16 05:31:27;;;;;;;15.02;9.93;;;3.80;99.90;;;;;;5074915;28;20029;-82
2022/04/16 05:36:38;;;;;;;13.73;10.70;;;3.70;99.90;;;;;;5075392;28;20040;-82
2022/04/16 05:39:04;;;;;;;15.57;10.65;;;3.60;99.90;;;;;;5075107;28;20036;-86
2022/04/16 05:41:32;;;;;;;15.27;10.27;;;3.60;99.90;;;;;;5075195;28;20020;-81
2022/04/16 05:43:59;;;;;;;13.10;9.25;;;3.70;99.90;;;;;;5056330;28;20027;-87
2022/04/16 05:46:24;;;;;;;13.30;9.60;;;3.60;99.90;;;;;;5074940;28;20104;-87
2022/04/16 05:48:50;;;;;;;14.68;8.65;;;3.60;99.90;;;;;;5074434;28;20100;-81
2022/04/16 05:51:16;;;;;;;14.77;9.80;;;3.50;99.90;;;;;;5074816;28;20017;-82
2022/04/16 05:53:42;;;;;;;9.30;7.88;;;3.50;99.90;;;;;;5074448;28;20032;-87
2022/04/16 05:56:09;;;;;;;8.70;6.50;;;3.50;99.90;;;;;;5056534;28;20032;-85
2022/04/16 05:58:36;;;;;;;9.43;7.18;;;3.50;99.90;;;;;;5074043;28;20035;-82
2022/04/16 06:01:02;;;;;;;15.07;10.52;;;3.50;99.90;;;;;;5074115;28;20052;-85
2022/04/16 06:03:28;;;;;;;11.63;8.32;;;3.50;99.90;;;;;;5074413;28;20474;-82
2022/04/16 06:05:54;;;;;;;12.65;8.38;;;3.50;99.90;;;;;;5072847;28;20424;-85
2022/04/16 06:08:20;;;;;;;8.52;6.60;;;3.50;99.90;;;;;;5074583;28;20073;-81
2022/04/16 06:10:45;;;;;;;16.42;10.60;;;3.50;99.90;;;;;;5064426;28;20017;-81
2022/04/16 06:13:11;;;;;;;29.20;14.25;;;3.50;99.90;;;;;;5073187;28;20020;-85
2022/04/16 06:15:40;;;;;;;19.83;11.23;;;3.60;99.90;;;;;;5073976;28;20027;-82
2022/04/16 06:18:06;;;;;;;12.07;7.90;;;3.60;99.90;;;;;;5074165;28;20044;-81
2022/04/16 06:20:31;;;;;;;15.15;9.40;;;3.60;99.90;;;;;;5074059;28;20016;-85
2022/04/16 06:22:57;;;;;;;7.32;5.60;;;3.60;99.90;;;;;;5074307;28;20074;-86
2022/04/16 06:25:24;;;;;;;9.18;6.80;;;3.60;99.90;;;;;;5055968;28;20020;-87
2022/04/16 06:27:50;;;;;;;23.25;10.98;;;3.60;99.90;;;;;;5056049;28;20413;-81
2022/04/16 06:30:16;;;;;;;14.98;9.90;;;3.60;99.90;;;;;;5073884;28;20028;-86
2022/04/16 06:32:42;;;;;;;12.30;8.48;;;3.60;99.90;;;;;;5055864;28;20027;-89
2022/04/16 06:35:08;;;;;;;7.70;5.63;;;3.60;99.90;;;;;;5055567;28;20036;-86
2022/04/16 06:37:37;;;;;;;5.10;4.40;;;3.50;99.90;;;;;;5073845;28;20028;-80
2022/04/16 06:40:03;;;;;;;7.47;5.35;;;3.60;99.90;;;;;;5073387;28;20029;-79
2022/04/16 06:42:29;;;;;;;12.77;9.38;;;3.60;99.90;;;;;;5053934;28;20035;-86
2022/04/16 06:44:54;;;;;;;16.85;12.02;;;3.50;99.90;;;;;;5071150;28;20454;-86
2022/04/16 06:47:20;;;;;;;4.70;3.95;;;3.50;99.90;;;;;;5073140;28;20024;-86
2022/04/16 06:49:45;;;;;;;57.17;27.55;;;3.50;99.90;;;;;;5055323;28;20028;-81
2022/04/16 06:52:12;;;;;;;35.38;25.08;;;3.40;99.90;;;;;;5073384;28;20027;-81
2022/04/16 06:54:38;;;;;;;20.60;16.65;;;3.40;99.90;;;;;;5055423;28;20031;-81
2022/04/16 06:57:04;;;;;;;95.10;63.53;;;3.40;99.90;;;;;;5073311;28;20029;-85
2022/04/16 06:59:30;;;;;;;74.45;45.28;;;3.40;99.90;;;;;;5054289;28;20127;-82
2022/04/16 07:01:55;;;;;;;167.40;106.53;;;3.40;99.90;;;;;;5073434;28;20024;-84
2022/04/16 07:04:21;;;;;;;113.53;71.88;;;3.30;99.90;;;;;;5071884;28;20020;-82
2022/04/16 07:06:47;;;;;;;22.42;15.38;;;3.30;99.90;;;;;;5073367;28;20120;-81
2022/04/16 07:09:12;;;;;;;39.05;26.42;;;3.20;99.90;;;;;;5073146;28;20024;-83
2022/04/16 07:11:38;;;;;;;50.13;29.77;;;3.10;99.90;;;;;;5072781;28;20021;-82
2022/04/16 07:14:04;;;;;;;23.30;14.93;;;3.20;99.90;;;;;;5073272;28;20031;-86
2022/04/16 07:16:29;;;;;;;29.05;17.42;;;3.20;99.90;;;;;;5073195;28;20028;-84
2022/04/16 07:18:55;;;;;;;33.80;23.77;;;3.20;99.90;;;;;;5073093;28;20063;-88
2022/04/16 07:21:21;;;;;;;10.77;7.50;;;3.30;99.90;;;;;;5054977;28;20017;-82
2022/04/16 07:23:47;;;;;;;10.00;7.53;;;3.20;99.90;;;;;;5072774;28;20393;-82
2022/04/16 07:26:13;;;;;;;14.32;10.27;;;3.30;99.90;;;;;;5072974;28;20025;-88
2022/04/16 07:28:39;;;;;;;21.33;13.60;;;3.30;99.90;;;;;;5073068;28;20073;-87
2022/04/16 07:31:04;;;;;;;20.90;13.15;;;3.30;99.90;;;;;;5072845;28;20025;-84
2022/04/16 07:33:30;;;;;;;20.63;14.13;;;3.30;99.90;;;;;;5055014;28;20476;-88
2022/04/16 07:35:56;;;;;;;17.15;13.43;;;3.40;99.90;;;;;;5072918;28;20024;-88
2022/04/16 07:38:22;;;;;;;11.80;9.15;;;3.40;99.90;;;;;;5072639;28;20037;-87
2022/04/16 07:40:48;;;;;;;12.55;8.15;;;3.40;99.90;;;;;;5054623;28;20363;-83
2022/04/16 07:43:18;;;;;;;11.05;8.57;;;3.40;99.90;;;;;;5072899;28;20433;-87
2022/04/16 07:45:43;;;;;;;13.38;10.35;;;3.40;99.90;;;;;;5054702;28;20436;-87
2022/04/16 07:48:10;;;;;;;11.48;8.40;;;3.50;99.90;;;;;;5054592;28;20032;-87
2022/04/16 07:50:35;;;;;;;13.90;8.30;;;3.50;99.90;;;;;;5054886;28;20455;-83
2022/04/16 07:53:02;;;;;;;12.05;6.30;;;3.50;99.90;;;;;;5071966;28;20063;-82
2022/04/16 07:55:31;;;;;;;14.93;7.75;;;3.60;99.90;;;;;;5054900;28;20021;-88
2022/04/16 07:57:57;;;;;;;9.98;8.02;;;3.50;99.90;;;;;;5054613;28;20033;-87
2022/04/16 08:00:23;;;;;;;11.05;9.32;;;3.60;99.90;;;;;;5072437;28;20045;-84
2022/04/16 08:02:48;;;;;;;13.00;10.38;;;3.40;99.90;;;;;;5072146;28;20386;-83
2022/04/16 08:05:14;;;;;;;13.50;10.00;;;3.50;99.90;;;;;;5072560;28;20024;-82
2022/04/16 08:07:40;;;;;;;13.00;9.80;;;3.50;99.90;;;;;;5072685;28;20025;-88
2022/04/16 08:10:06;;;;;;;12.30;10.05;;;3.50;99.90;;;;;;5054651;28;20054;-82
2022/04/16 08:12:32;;;;;;;12.48;9.70;;;3.50;99.90;;;;;;5070743;28;20025;-83
2022/04/16 08:14:58;;;;;;;14.40;9.70;;;3.50;99.90;;;;;;5072802;28;20025;-87
2022/04/16 08:17:23;;;;;;;12.02;8.68;;;3.50;99.90;;;;;;5054508;28;20123;-83
2022/04/16 08:19:49;;;;;;;21.83;12.02;;;3.50;99.90;;;;;;5054322;28;20101;-82
2022/04/16 08:22:23;;;;;;;83.68;38.20;;;3.50;99.90;;;;;;5076563;28;20028;-82
2022/04/16 08:27:35;;;;;;;12.23;8.82;;;3.50;99.90;;;;;;5076631;28;20040;-82
2022/04/16 08:30:00;;;;;;;14.15;10.95;;;3.40;99.90;;;;;;5076244;28;20024;-87
2022/04/16 08:32:26;;;;;;;12.00;9.32;;;3.30;99.90;;;;;;5075417;28;20373;-87
2022/04/16 08:34:52;;;;;;;11.40;8.38;;;3.30;99.90;;;;;;5058017;28;20020;-82
2022/04/16 08:37:18;;;;;;;23.98;15.73;;;3.20;99.90;;;;;;5076105;28;20099;-83
2022/04/16 08:39:45;;;;;;;8.82;7.63;;;3.20;99.90;;;;;;5074659;28;20032;-83
2022/04/16 08:42:11;;;;;;;22.17;13.43;;;3.10;99.90;;;;;;5074782;28;20105;-87
2022/04/16 08:44:39;;;;;;;18.15;12.75;;;3.10;99.90;;;;;;5074155;28;20469;-88
2022/04/16 08:47:05;;;;;;;12.27;9.80;;;3.20;99.90;;;;;;5074184;28;20020;-82
2022/04/16 08:49:33;;;;;;;12.40;10.63;;;3.20;99.90;;;;;;5056591;28;20031;-82
2022/04/16 08:51:59;;;;;;;13.55;8.88;;;3.20;99.90;;;;;;5056391;28;20027;-82
2022/04/16 08:54:25;;;;;;;11.25;8.15;;;3.20;99.90;;;;;;5075120;28;20020;-87
2022/04/16 08:56:51;;;;;;;11.93;9.35;;;3.30;99.90;;;;;;5058509;28;20036;-87
2022/04/16 08:59:17;;;;;;;11.07;9.15;;;3.30;99.90;;;;;;5057164;28;20045;-83
2022/04/16 09:01:43;;;;;;;10.05;7.45;;;3.30;99.90;;;;;;5057129;28;20093;-82
2022/04/16 09:04:22;;;;;;;22.27;12.73;;;3.40;99.90;;;;;;5074139;28;20108;-82
2022/04/16 09:07:02;;;;;;;14.73;8.05;;;3.40;99.90;;;;;;5072425;28;20024;-83
2022/04/16 09:09:28;;;;;;;20.02;12.50;;;3.40;99.90;;;;;;5072805;28;20025;-82
2022/04/16 09:11:55;;;;;;;13.00;7.55;;;3.70;99.90;;;;;;5075378;28;20385;-82
2022/04/16 09:14:35;;;;;;;7.82;6.28;;;3.80;99.90;;;;;;5075255;28;20021;-82
2022/04/16 09:17:01;;;;;;;14.55;9.00;;;3.90;99.90;;;;;;5073815;28;20111;-82
2022/04/16 09:19:29;;;;;;;9.57;7.25;;;3.90;99.90;;;;;;5075345;28;20096;-81
2022/04/16 09:21:55;;;;;;;9.48;7.07;;;3.90;99.90;;;;;;5074012;28;20443;-82
2022/04/16 09:24:21;;;;;;;9.65;6.68;;;3.90;99.90;;;;;;5074827;28;20098;-86
2022/04/16 09:26:49;;;;;;;25.17;12.23;;;3.60;99.90;;;;;;5075814;28;20021;-82
2022/04/16 09:29:16;;;;;;;8.98;7.28;;;3.40;99.90;;;;;;5073706;28;20082;-85
2022/04/16 09:31:46;;;;;;;8.68;6.22;;;3.40;99.90;;;;;;5073910;28;20415;-82
2022/04/16 09:34:20;;;;;;;9.25;7.20;;;3.50;99.90;;;;;;5074853;28;20116;-86
2022/04/16 09:36:47;;;;;;;13.07;8.95;;;3.40;99.90;;;;;;5074901;28;20078;-82
2022/04/16 09:39:13;;;;;;;11.57;8.80;;;3.60;99.90;;;;;;5074728;28;20307;-82
2022/04/16 09:41:47;;;;;;;9.95;7.78;;;3.70;99.90;;;;;;5074779;28;20044;-82
2022/04/16 09:44:25;;;;;;;9.50;5.97;;;3.90;99.90;;;;;;5074671;28;20028;-83
2022/04/16 09:46:52;;;;;;;10.15;7.40;;;4.50;99.90;;;;;;5074671;28;20048;-87
2022/04/16 09:49:18;;;;;;;6.35;4.72;;;4.70;99.90;;;;;;5075019;28;20032;-82
2022/04/16 09:51:46;;;;;;;12.00;8.13;;;4.70;95.80;;;;;;5074008;28;20047;-82
2022/04/16 09:54:12;;;;;;;13.73;7.60;;;4.50;99.90;;;;;;5074325;28;20033;-87
2022/04/16 09:56:46;;;;;;;9.60;7.07;;;4.50;99.90;;;;;;5074338;28;20031;-83
2022/04/16 09:59:13;;;;;;;12.65;7.85;;;4.40;96.60;;;;;;5074094;28;20040;-89
2022/04/16 10:01:47;;;;;;;9.15;5.72;;;4.40;98.60;;;;;;5074118;28;20016;-87
2022/04/16 10:04:15;;;;;;;10.32;6.53;;;4.50;99.00;;;;;;5072018;28;20366;-87
2022/04/16 10:06:41;;;;;;;9.45;6.30;;;4.60;99.90;;;;;;5073284;28;20021;-82
2022/04/16 10:09:22;;;;;;;10.68;7.38;;;4.60;95.50;;;;;;5073328;28;20040;-88
2022/04/16 10:15:00;;;;;;;5.50;4.88;;;4.70;99.40;;;;;;5074011;28;20040;-82
2022/04/16 10:17:32;;;;;;;7.57;5.55;;;5.00;97.20;;;;;;5073440;28;20066;-88
2022/04/16 10:20:18;;;;;;;5.43;4.15;;;5.30;97.50;;;;;;5072508;28;20401;-87
2022/04/16 10:23:05;;;;;;;6.57;3.83;;;5.50;90.90;;;;;;5073825;28;20016;-87
2022/04/16 10:25:39;;;;;;;5.45;3.42;;;5.90;84.90;;;;;;5072835;28;20388;-82
2022/04/16 10:28:09;;;;;;;4.40;3.92;;;6.10;83.00;;;;;;5073854;28;20020;-82
2022/04/16 10:30:49;;;;;;;5.55;4.32;;;6.20;82.10;;;;;;5072287;28;20541;-83
2022/04/16 10:33:16;;;;;;;2.60;2.40;;;6.00;81.00;;;;;;5073720;28;20082;-87
2022/04/16 10:35:58;;;;;;;3.25;3.05;;;5.80;70.40;;;;;;5072558;28;20016;-86
2022/04/16 10:38:24;;;;;;;1.88;1.77;;;6.00;70.80;;;;;;5072914;28;20483;-88
2022/04/16 10:41:09;;;;;;;2.95;2.65;;;6.50;71.80;;;;;;5073694;28;20389;-87
2022/04/16 10:43:35;;;;;;;4.00;3.58;;;6.50;70.80;;;;;;5071939;28;20610;-87
2022/04/16 10:46:06;;;;;;;2.10;1.95;;;6.50;68.40;;;;;;5071958;28;20025;-86
2022/04/16 10:48:34;;;;;;;3.10;2.72;;;6.40;66.30;;;;;;5073452;28;20028;-87
2022/04/16 10:51:00;;;;;;;3.15;2.60;;;6.30;67.20;;;;;;5073363;28;20025;-87
2022/04/16 10:53:28;;;;;;;2.38;2.17;;;6.60;67.80;;;;;;5073455;28;20107;-88
2022/04/16 10:55:54;;;;;;;3.22;2.28;;;6.70;64.40;;;;;;5071929;28;20020;-85
2022/04/16 10:58:27;;;;;;;3.00;2.72;;;6.90;64.60;;;;;;5072088;28;20029;-86
2022/04/16 11:01:07;;;;;;;3.60;2.28;;;7.20;63.60;;;;;;5073222;28;20052;-87
2022/04/16 11:03:41;;;;;;;4.03;2.72;;;7.60;64.20;;;;;;5073537;28;20023;-87
2022/04/16 11:06:09;;;;;;;2.53;2.33;;;7.40;64.60;;;;;;5073073;28;20100;-82
2022/04/16 11:08:37;;;;;;;2.05;1.88;;;7.00;65.20;;;;;;5072561;28;20020;-82
2022/04/16 11:11:04;;;;;;;3.67;2.55;;;6.60;62.80;;;;;;5073263;28;20066;-89
2022/04/16 11:13:31;;;;;;;2.75;2.35;;;6.80;61.20;;;;;;5073326;28;20023;-82
2022/04/16 11:15:58;;;;;;;2.05;1.95;;;7.20;61.60;;;;;;5073460;28;20024;-82
2022/04/16 11:18:25;;;;;;;2.90;2.70;;;7.20;60.60;;;;;;5073434;28;20050;-88
2022/04/16 11:20:55;;;;;;;2.50;2.30;;;7.00;59.60;;;;;;5074258;28;20029;-83
2022/04/16 11:23:25;;;;;;;1.92;1.83;;;6.80;59.80;;;;;;5071823;28;20377;-83
2022/04/16 11:34:20;;;;;;;9.82;4.85;;;7.80;60.40;;;;;;5072951;28;20032;-83
2022/04/16 11:36:52;;;;;;;7.38;2.90;;;7.40;60.60;;;;;;5070488;28;20529;-83
2022/04/16 11:39:27;;;;;;;2.03;1.73;;;7.40;59.50;;;;;;5071256;28;20040;-88
2022/04/16 11:42:00;;;;;;;7.70;4.53;;;7.60;58.80;;;;;;5070939;28;20020;-87
2022/04/16 11:44:38;;;;;;;3.30;2.15;;;7.50;58.80;;;;;;5071306;28;20501;-82
2022/04/16 11:47:37;;;;;;;5.55;3.30;;;7.60;58.50;;;;;;5072509;28;20052;-83
2022/04/16 11:50:05;;;;;;;8.30;5.18;;;7.50;58.30;;;;;;5049876;28;20032;-83
2022/04/16 11:52:33;;;;;;;2.88;2.25;;;7.40;58.60;;;;;;5072593;28;20039;-82
2022/04/16 11:54:59;;;;;;;6.15;4.53;;;7.40;58.30;;;;;;5071826;28;20100;-83
2022/04/16 11:57:25;;;;;;;2.30;2.10;;;7.40;58.10;;;;;;5072066;28;20099;-83
2022/04/16 12:00:04;;;;;;;2.60;1.40;;;7.60;57.50;;;;;;5071102;28;20063;-86
2022/04/16 12:02:31;;;;;;;1.80;1.70;;;7.50;56.20;;;;;;5072353;28;20036;-87
2022/04/16 12:05:13;;;;;;;2.03;1.90;;;7.20;55.90;;;;;;5072735;28;20021;-88
2022/04/16 12:07:49;;;;;;;3.13;2.80;;;7.20;55.90;;;;;;5072186;28;20021;-83
2022/04/16 12:10:16;;;;;;;1.73;1.63;;;7.60;56.70;;;;;;5071759;28;20040;-87
2022/04/16 12:12:47;;;;;;;1.85;1.48;;;7.50;54.70;;;;;;5070081;28;20024;-87
2022/04/16 12:15:23;;;;;;;1.10;1.10;;;7.70;54.90;;;;;;5072771;28;20025;-87
2022/04/16 12:17:50;;;;;;;5.03;3.28;;;7.90;54.20;;;;;;5054067;28;20143;-87
2022/04/16 12:20:16;;;;;;;1.67;1.13;;;7.90;55.90;;;;;;5059265;28;20033;-84
2022/04/16 12:22:57;;;;;;;2.28;1.30;;;7.50;56.20;;;;;;5071702;28;20082;-84
2022/04/16 12:25:24;;;;;;;12.13;5.80;;;7.60;55.80;;;;;;5062322;28;20107;-84
2022/04/16 12:27:50;;;;;;;1.20;1.20;;;7.90;56.70;;;;;;5071718;28;20047;-88
2022/04/16 12:30:24;;;;;;;1.88;1.60;;;7.70;54.60;;;;;;5070789;28;20020;-84
2022/04/16 12:33:04;;;;;;;1.17;1.10;;;8.10;55.30;;;;;;5054315;28;20028;-88
2022/04/16 12:35:32;;;;;;;1.60;1.50;;;8.00;54.20;;;;;;5072100;28;20019;-85
2022/04/16 12:37:58;;;;;;;6.00;3.83;;;7.70;54.40;;;;;;5071741;28;20040;-86
2022/04/16 12:40:26;;;;;;;4.40;3.00;;;7.40;54.40;;;;;;5068511;28;20033;-84
2022/04/16 12:42:53;;;;;;;5.22;3.50;;;7.70;56.50;;;;;;5068208;28;20166;-84
2022/04/16 12:45:19;;;;;;;5.05;3.92;;;8.00;56.20;;;;;;5071265;28;20021;-85
2022/04/16 12:47:44;;;;;;;4.32;3.08;;;8.30;56.40;;;;;;5071183;28;20378;-86
2022/04/16 12:50:11;;;;;;;33.33;19.33;;;8.40;55.10;;;;;;5071803;28;20504;-85
2022/04/16 12:52:37;;;;;;;3.15;2.33;;;8.30;54.50;;;;;;5071691;28;20032;-87
2022/04/16 12:55:03;;;;;;;3.58;2.10;;;7.90;52.90;;;;;;5071881;28;20028;-84
2022/04/16 12:57:29;;;;;;;6.47;4.40;;;7.90;53.10;;;;;;5071551;28;20072;-86
2022/04/16 12:59:54;;;;;;;8.65;6.10;;;7.70;53.20;;;;;;5053774;28;20134;-84
2022/04/16 13:02:20;;;;;;;18.77;10.80;;;7.70;54.50;;;;;;5071751;28;20021;-87
2022/04/16 13:04:46;;;;;;;3.05;2.67;;;7.90;55.40;;;;;;5071638;28;20111;-84
2022/04/16 13:07:12;;;;;;;2.95;2.47;;;7.50;54.30;;;;;;5074013;28;20022;-85
2022/04/16 13:09:38;;;;;;;7.65;4.32;;;7.30;54.00;;;;;;5074059;28;20024;-87
2022/04/16 13:12:03;;;;;;;5.90;3.63;;;7.30;53.50;;;;;;5074015;28;20017;-88
2022/04/16 13:14:29;;;;;;;3.92;3.10;;;7.50;53.10;;;;;;5075248;28;20028;-85
2022/04/16 13:16:55;;;;;;;5.75;4.30;;;7.90;52.60;;;;;;5074850;28;20021;-87
2022/04/16 13:19:21;;;;;;;3.55;1.80;;;8.10;53.30;;;;;;5074829;28;20036;-87
2022/04/16 13:21:47;;;;;;;3.70;2.47;;;7.70;53.00;;;;;;5075046;28;20425;-84